GCFV

Fuerteventura Airport

Fuerteventura Island, Spain
METAR GCFV 171400Z 08005KT 040V130 9999 FEW018 21/16 Q1022
Observed Flight Rules
Dec-17 @ 14:00 UTC (30 minutes ago) Visual Flight Rules
Wind Visibility Clouds
80° at 5 knots 10,000+ meters
  • Few at 1,800' AGL
Temperatures Readings
Current 21°C / 70°F
Dewpoint 16°C / 61°F
Humidity 73%
Altimeter 30.18" Hg
Pressure 1022 hPa
Elevation 23
METAR GCFV 171400Z 08005KT 040V130 9999 FEW018 21/16 Q1022
Observed Flight Rules
Dec-17 @ 14:00 UTC
(30 minutes ago)
VFR
Wind Visibility
80° at 5 knots 10,000+ meters
Clouds
  • Few at 1,800' AGL
Temperature Dewpoint
21°C / 70°F 16°C / 61°F
Humidity Altimeter Pressure
73% 30.18" Hg 1022 hPa